createdAt,value
2019-04-23T00:00:29.314Z,100856.70
2019-04-23T00:03:06.925Z,100845.45
2019-04-23T00:05:40.823Z,100847.45
2019-04-23T00:08:09.688Z,100845.31
2019-04-23T00:10:53.387Z,100842.48
2019-04-23T00:12:59.181Z,100841.00
2019-04-23T00:16:01.155Z,100834.59
2019-04-23T00:18:32.358Z,100836.22
2019-04-23T00:20:57.206Z,100835.64
2019-04-23T00:23:25.537Z,100838.27
2019-04-23T00:28:36.208Z,100823.25
2019-04-23T00:30:56.671Z,100822.27
2019-04-23T00:35:56.518Z,100816.61
2019-04-23T00:38:26.498Z,100824.59
2019-04-23T00:45:50.269Z,100816.98
2019-04-23T00:48:31.123Z,100800.34
2019-04-23T00:55:47.780Z,100801.62
2019-04-23T00:58:22.418Z,100801.69
2019-04-23T01:00:54.053Z,100806.52
2019-04-23T01:03:17.246Z,100804.26
2019-04-23T01:05:48.899Z,100799.41
2019-04-23T01:08:18.604Z,100806.31
2019-04-23T01:10:52.078Z,100791.76
2019-04-23T01:13:22.398Z,100786.94
2019-04-23T01:15:46.412Z,100792.06
2019-04-23T01:18:30.222Z,100788.94
2019-04-23T01:20:52.721Z,100781.22
2019-04-23T01:23:05.614Z,100783.23
2019-04-23T01:25:47.412Z,100783.52
2019-04-23T01:28:40.032Z,100771.58
2019-04-23T01:38:37.540Z,100775.19
2019-04-23T01:40:58.410Z,100762.75
2019-04-23T01:43:30.805Z,100762.69
2019-04-23T01:45:54.676Z,100752.64
2019-04-23T01:48:29.986Z,100750.73
2019-04-23T01:50:56.041Z,100753.98
2019-04-23T01:53:27.327Z,100754.04
2019-04-23T01:56:00.572Z,100745.84
2019-04-23T01:58:36.089Z,100753.98
2019-04-23T02:00:56.306Z,100742.78
2019-04-23T02:03:22.640Z,100737.14
2019-04-23T02:05:55.816Z,100740.23
2019-04-23T02:08:20.922Z,100730.47
2019-04-23T02:11:02.929Z,100723.61
2019-04-23T02:13:28.615Z,100720.63
2019-04-23T02:15:47.700Z,100723.48
2019-04-23T02:18:18.165Z,100716.31
2019-04-23T02:20:47.257Z,100711.63
2019-04-23T02:23:40.961Z,100711.44
2019-04-23T02:26:11.215Z,100703.78
2019-04-23T02:31:21.251Z,100700.19
2019-04-23T02:33:44.649Z,100700.48
2019-04-23T02:41:13.167Z,100682.73
2019-04-23T02:43:28.139Z,100680.84
2019-04-23T02:51:05.395Z,100675.20
2019-04-23T03:01:19.493Z,100675.53
2019-04-23T03:04:19.804Z,100669.43
2019-04-23T03:06:05.878Z,100661.34
2019-04-23T03:11:09.847Z,100655.92
2019-04-23T03:29:40.462Z,100650.54
2019-04-23T03:39:40.278Z,100640.66
2019-04-23T03:42:02.891Z,100635.38
2019-04-23T03:44:30.837Z,100643.87
2019-04-23T03:49:30.192Z,100632.82
2019-04-23T03:52:09.097Z,100640.28
2019-04-23T03:57:12.510Z,100638.02
2019-04-23T03:59:36.891Z,100638.89
2019-04-23T04:02:04.446Z,100632.92
2019-04-23T04:04:25.203Z,100634.88
2019-04-23T04:07:30.777Z,100640.82
2019-04-23T04:11:48.668Z,100633.35
2019-04-23T04:16:51.720Z,100633.78
2019-04-23T04:19:25.146Z,100645.34
2019-04-23T06:39:15.867Z,100635.80
2019-04-23T06:41:49.957Z,100628.02
2019-04-23T06:44:24.105Z,100628.06
2019-04-23T06:46:57.325Z,100621.56
2019-04-23T06:49:32.025Z,100624.77
2019-04-23T06:52:00.692Z,100631.50
2019-04-23T06:54:27.870Z,100625.91
2019-04-23T06:56:58.713Z,100610.23
2019-04-23T07:04:17.017Z,100618.88
2019-04-23T07:06:58.115Z,100600.09
2019-04-23T07:11:42.911Z,100613.81
2019-04-23T07:14:21.850Z,100598.48
2019-04-23T07:16:46.514Z,100606.53
2019-04-23T07:19:24.706Z,100600.02
2019-04-23T07:21:45.087Z,100594.50
2019-04-23T07:24:08.530Z,100598.53
2019-04-23T07:26:39.039Z,100596.48
2019-04-23T07:29:09.048Z,100603.24
2019-04-23T07:31:46.108Z,100592.64
2019-04-23T07:34:05.189Z,100598.07
2019-04-23T07:36:40.596Z,100596.75
2019-04-23T07:39:23.532Z,100592.14
2019-04-23T07:42:37.240Z,100594.19
2019-04-23T07:45:13.623Z,100598.95
2019-04-23T07:48:01.827Z,100585.91
2019-04-23T07:50:33.112Z,100581.56
2019-04-23T07:53:11.563Z,100587.75
2019-04-23T07:58:01.937Z,100583.05
2019-04-23T08:00:29.657Z,100591.80
2019-04-23T08:02:57.856Z,100564.09
2019-04-23T08:05:36.197Z,100567.16
2019-04-23T08:07:50.975Z,100569.52
2019-04-23T08:10:21.441Z,100565.09
2019-04-23T08:12:48.058Z,100565.98
2019-04-23T08:15:14.981Z,100561.56
2019-04-23T08:17:41.504Z,100573.47
2019-04-23T08:20:16.868Z,100563.27
2019-04-23T08:22:49.560Z,100560.11
2019-04-23T08:25:35.545Z,100549.66
2019-04-23T08:28:09.761Z,100564.80
2019-04-23T08:30:33.466Z,100550.28
2019-04-23T08:33:07.355Z,100551.16
2019-04-23T08:35:41.669Z,100556.51
2019-04-23T08:40:35.543Z,100542.30
2019-04-23T08:43:26.057Z,100558.31
2019-04-23T08:46:07.610Z,100549.91
2019-04-23T08:48:50.292Z,100546.81
2019-04-23T08:51:11.065Z,100529.12
2019-04-23T08:53:35.728Z,100533.16
2019-04-23T08:56:15.088Z,100532.69
2019-04-23T09:00:58.629Z,100518.09
2019-04-23T09:03:30.140Z,100526.52
2019-04-23T09:05:57.681Z,100516.77
2019-04-23T09:08:27.458Z,100525.22
2019-04-23T09:15:56.700Z,100504.83
2019-04-23T09:18:20.966Z,100505.70
2019-04-23T09:20:48.055Z,100549.14
2019-04-23T09:23:29.680Z,100492.86
2019-04-23T09:28:27.681Z,100500.82
2019-04-23T09:30:55.490Z,100492.40
2019-04-23T09:33:48.506Z,100494.20
2019-04-23T09:39:08.342Z,100496.42
2019-04-23T09:42:01.033Z,100533.66
2019-04-23T09:50:11.140Z,100472.89
2019-04-23T09:52:41.205Z,100464.90
2019-04-23T09:55:17.159Z,100462.24
2019-04-23T09:57:39.012Z,100447.49
2019-04-23T10:00:15.511Z,100448.41
2019-04-23T10:02:27.417Z,100446.26
2019-04-23T10:04:54.664Z,100452.83
2019-04-23T10:07:16.403Z,100460.87
2019-04-23T10:09:34.236Z,100437.78
2019-04-23T10:12:03.105Z,100432.03
2019-04-23T10:14:30.535Z,100430.09
2019-04-23T10:16:59.875Z,100426.02
2019-04-23T10:19:28.751Z,100423.34
2019-04-23T10:21:57.422Z,100414.95
2019-04-23T10:24:25.328Z,100408.63
2019-04-23T10:26:52.687Z,100405.06
2019-04-23T10:29:23.769Z,100407.77
2019-04-23T10:31:51.483Z,100398.03
2019-04-23T10:34:19.041Z,100400.66
2019-04-23T10:36:47.418Z,100396.70
2019-04-23T10:39:21.512Z,100375.69
2019-04-23T10:41:46.381Z,100369.09
2019-04-23T10:44:33.553Z,100376.15
2019-04-23T10:47:45.344Z,100384.50
2019-04-23T10:53:32.147Z,100390.02
2019-04-23T10:55:58.710Z,100378.89
2019-04-23T10:58:22.848Z,100381.70
2019-04-23T11:01:01.535Z,100363.47
2019-04-23T11:03:41.701Z,100358.52
2019-04-23T11:08:25.305Z,100348.73
2019-04-23T11:10:50.337Z,100363.50
2019-04-23T11:16:15.367Z,100346.82
2019-04-23T11:18:33.817Z,100339.69
2019-04-23T11:20:50.601Z,100328.02
2019-04-23T11:23:23.140Z,100338.28
2019-04-23T11:25:48.471Z,100327.77
2019-04-23T11:31:04.441Z,100329.06
2019-04-23T11:36:22.399Z,100314.91
2019-04-23T11:40:48.886Z,100305.44
2019-04-23T11:43:29.235Z,100343.00
2019-04-23T11:46:01.235Z,100296.28
2019-04-23T11:53:26.011Z,100282.83
2019-04-23T12:04:05.168Z,100290.88
2019-04-23T12:06:47.740Z,100274.05
2019-04-23T12:09:26.212Z,100278.63
2019-04-23T12:12:02.250Z,100282.62
2019-04-23T12:17:13.000Z,100283.23
2019-04-23T12:22:10.381Z,100280.02
2019-04-23T12:24:58.228Z,100262.38
2019-04-23T12:27:25.938Z,100280.83
2019-04-23T12:29:37.442Z,100287.45
2019-04-23T12:32:35.694Z,100254.80
2019-04-23T12:34:59.451Z,100242.02
2019-04-23T12:40:15.400Z,100236.73
2019-04-23T12:42:55.518Z,100221.42
2019-04-23T12:45:17.932Z,100246.78
2019-04-23T12:55:13.633Z,100225.97
2019-04-23T12:57:37.173Z,100223.83
2019-04-23T13:02:40.235Z,100207.45
2019-04-23T13:05:01.341Z,100204.17
2019-04-23T13:07:43.548Z,100191.22
2019-04-23T13:10:01.613Z,100194.16
2019-04-23T13:15:05.267Z,100177.48
2019-04-23T13:17:40.498Z,100172.58
2019-04-23T13:20:00.714Z,100171.72
2019-04-23T13:22:31.553Z,100165.31
2019-04-23T13:25:01.864Z,100169.77
2019-04-23T13:27:50.183Z,100197.81
2019-04-23T13:30:18.245Z,100142.45
2019-04-23T13:32:48.794Z,100151.95
2019-04-23T13:35:25.699Z,100156.55
2019-04-23T13:37:46.448Z,100139.36
2019-04-23T13:40:09.629Z,100146.26
2019-04-23T13:42:45.023Z,100137.72
2019-04-23T13:45:20.487Z,100159.95
2019-04-23T13:50:13.100Z,100134.50
2019-04-23T13:53:04.190Z,100127.69
2019-04-23T13:58:00.301Z,100131.77
2019-04-23T14:00:07.049Z,100123.92
2019-04-23T14:02:36.879Z,100122.02
2019-04-23T14:05:19.096Z,100128.87
2019-04-23T14:07:50.046Z,100112.73
2019-04-23T14:10:20.109Z,100101.89
2019-04-23T14:12:41.780Z,100109.44
2019-04-23T14:17:46.531Z,100090.22
2019-04-23T14:20:08.711Z,100105.03
2019-04-23T14:30:17.963Z,100080.10
2019-04-23T14:32:28.587Z,100079.41
2019-04-23T14:37:22.103Z,100082.31
2019-04-23T14:40:12.511Z,100058.53
2019-04-23T14:43:04.327Z,100083.14
2019-04-23T14:45:31.208Z,100069.88
2019-04-23T14:48:00.762Z,100068.91
2019-04-23T14:50:32.305Z,100089.27
2019-04-23T14:53:06.955Z,100077.24
2019-04-23T14:55:50.926Z,100109.48
2019-04-23T14:58:00.877Z,100061.31
2019-04-23T15:00:25.679Z,100057.84
2019-04-23T15:02:59.439Z,100063.36
2019-04-23T15:05:25.011Z,100070.53
2019-04-23T15:07:50.753Z,100043.80
2019-04-23T15:10:26.339Z,100066.51
2019-04-23T15:12:52.079Z,100045.09
2019-04-23T15:15:21.131Z,100059.73
2019-04-23T15:17:51.384Z,100042.48
2019-04-23T15:20:28.919Z,100041.64
2019-04-23T15:25:46.010Z,100032.38
2019-04-23T15:30:25.450Z,100037.91
2019-04-23T15:33:11.663Z,100033.91
2019-04-23T15:38:21.013Z,100024.38
2019-04-23T15:40:26.958Z,100014.91
2019-04-23T15:43:02.762Z,100028.09
2019-04-23T15:45:28.853Z,100031.89
2019-04-23T15:48:08.514Z,100052.96
2019-04-23T15:50:29.770Z,100033.86
2019-04-23T15:52:56.650Z,100017.21
2019-04-23T15:55:20.955Z,100031.67
2019-04-23T15:58:07.737Z,100015.95
2019-04-23T16:00:17.901Z,100020.52
2019-04-23T16:02:23.901Z,100034.37
2019-04-23T16:04:51.301Z,100018.03
2019-04-23T16:07:34.121Z,100010.33
2019-04-23T16:10:26.006Z,100030.55
2019-04-23T16:12:53.463Z,100053.70
2019-04-23T16:15:13.313Z,100011.98
2019-04-23T16:18:11.472Z,100012.30
2019-04-23T16:20:54.419Z,100008.27
2019-04-23T16:22:52.963Z,100012.54
2019-04-23T16:25:21.783Z,100003.59
2019-04-23T16:27:56.401Z,100004.59
2019-04-23T16:30:27.347Z,100010.42
2019-04-23T16:36:05.605Z,100010.19
2019-04-23T16:38:32.508Z,100007.92
2019-04-23T16:40:47.670Z,99997.42
2019-04-23T16:43:44.447Z,100001.53
2019-04-23T16:46:04.162Z,100000.34
2019-04-23T16:51:14.157Z,99998.47
2019-04-23T16:55:59.819Z,100008.41
2019-04-23T16:58:33.461Z,100012.12
2019-04-23T17:01:03.653Z,100000.63
2019-04-23T17:03:36.061Z,100001.19
2019-04-23T17:08:42.301Z,99999.00
2019-04-23T17:13:27.558Z,100011.08
2019-04-23T17:16:02.665Z,99996.60
2019-04-23T17:18:24.447Z,100006.29
2019-04-23T17:20:52.481Z,100020.62
2019-04-23T17:23:31.441Z,100004.69
2019-04-23T17:25:59.300Z,100008.70
2019-04-23T17:28:21.741Z,100001.30
2019-04-23T17:31:04.728Z,100009.84
2019-04-23T17:33:27.698Z,100005.09
2019-04-23T17:38:55.320Z,100002.46
2019-04-23T17:41:50.043Z,100010.55
2019-04-23T17:46:44.645Z,100008.92
2019-04-23T17:49:13.130Z,100015.25
2019-04-23T17:51:31.048Z,100009.80
2019-04-23T17:54:11.003Z,100015.37
2019-04-23T17:56:47.761Z,100022.55
2019-04-23T17:59:15.874Z,100026.67
2019-04-23T18:01:54.266Z,100027.09
2019-04-23T18:06:41.293Z,100025.88
2019-04-23T18:09:19.133Z,100026.61
2019-04-23T18:11:35.796Z,100029.56
2019-04-23T18:14:08.523Z,100031.83
2019-04-23T18:19:12.367Z,100036.45
2019-04-23T18:21:50.753Z,100029.53
2019-04-23T18:24:33.933Z,100033.11
2019-04-23T18:27:16.959Z,100043.76
2019-04-23T18:30:16.122Z,100042.45
2019-04-23T18:33:43.782Z,100035.10
2019-04-23T18:35:29.640Z,100043.92
2019-04-23T18:38:11.968Z,100041.81
2019-04-23T18:40:40.486Z,100040.69
2019-04-23T18:48:35.452Z,100046.14
2019-04-23T18:50:57.042Z,100047.97
2019-04-23T18:56:03.548Z,100054.34
2019-04-23T18:58:22.395Z,100052.88
2019-04-23T19:00:56.863Z,100054.16
2019-04-23T19:03:55.337Z,100055.22
2019-04-23T19:17:26.238Z,100053.20
2019-04-23T19:24:26.280Z,100060.91
2019-04-23T19:29:21.265Z,100062.29
2019-04-23T19:37:02.404Z,100059.27
2019-04-23T19:42:03.890Z,100062.88
2019-04-23T19:44:42.707Z,100058.94
2019-04-23T19:51:59.492Z,100061.98
2019-04-23T19:54:44.522Z,100059.81
2019-04-23T19:59:41.263Z,100057.17
2019-04-23T20:02:00.187Z,100061.17
2019-04-23T20:04:28.885Z,100052.81
2019-04-23T20:12:01.060Z,100051.06
2019-04-23T20:14:26.163Z,100046.64
2019-04-23T20:19:31.514Z,100050.22
2019-04-23T20:24:47.246Z,100045.77
2019-04-23T20:26:59.303Z,100048.86
2019-04-23T20:30:04.909Z,100055.55
2019-04-23T20:35:07.244Z,100055.08
2019-04-23T20:37:58.106Z,100042.25
2019-04-23T20:40:10.758Z,100045.79
2019-04-23T20:42:36.706Z,100039.14
2019-04-23T20:47:33.361Z,100037.86
2019-04-23T20:50:10.857Z,100030.36
2019-04-23T20:52:20.435Z,100040.08
2019-04-23T20:55:02.097Z,100035.70
2019-04-23T20:57:45.722Z,100030.85
2019-04-23T21:00:12.374Z,100037.94
2019-04-23T21:05:20.915Z,100032.61
2019-04-23T21:13:09.223Z,100027.79
2019-04-23T21:20:35.715Z,100027.37
2019-04-23T21:23:09.649Z,100039.77
2019-04-23T21:25:22.362Z,100024.28
2019-04-23T21:31:06.330Z,100033.56
2019-04-23T21:33:24.397Z,100021.19
2019-04-23T21:36:15.624Z,100026.92
2019-04-23T21:38:56.695Z,100029.59
2019-04-23T21:41:44.911Z,100025.62
2019-04-23T21:51:46.375Z,100014.16
2019-04-23T21:53:56.909Z,100012.38
2019-04-23T21:56:31.268Z,100013.27
2019-04-23T22:09:10.966Z,100008.38
2019-04-23T22:21:36.704Z,99996.45
2019-04-23T22:24:02.729Z,100000.45
2019-04-23T22:26:29.876Z,99994.68
2019-04-23T22:31:30.858Z,99989.85
2019-04-23T22:36:41.993Z,99990.27
2019-04-23T22:38:49.491Z,99989.81
2019-04-23T22:41:18.187Z,99986.75
2019-04-23T22:43:55.670Z,99986.74
2019-04-23T22:46:22.901Z,99980.56
2019-04-23T22:49:06.268Z,99984.07
2019-04-23T22:51:35.952Z,99975.69
2019-04-23T22:53:58.588Z,99984.95
2019-04-23T22:56:27.627Z,99974.78
2019-04-23T22:59:11.670Z,99972.56
2019-04-23T23:01:26.059Z,99972.14
2019-04-23T23:04:01.178Z,99972.58
2019-04-23T23:06:41.337Z,99974.73
2019-04-23T23:09:17.704Z,99977.34
2019-04-23T23:11:22.787Z,99976.52
2019-04-23T23:14:10.312Z,99972.92
2019-04-23T23:19:06.914Z,99969.38
2019-04-23T23:23:54.701Z,99964.52
2019-04-23T23:26:20.332Z,99963.16
2019-04-23T23:31:24.748Z,99961.86
2019-04-23T23:33:55.596Z,99961.33
2019-04-23T23:36:20.289Z,99957.80
2019-04-23T23:41:33.804Z,99953.83
2019-04-23T23:43:54.532Z,99952.97
2019-04-23T23:46:42.057Z,99956.01
2019-04-23T23:48:48.457Z,99953.34
2019-04-23T23:54:21.544Z,99950.70
2019-04-23T23:58:53.478Z,99940.08
